Latest Weather Observations for Cowra

IDN60801

Issued at 4:35 pm EST Thursday 17 April 2014 (issued every 30 minutes, with the page automatically refreshed every 10 minutes)

About weather observations | Map of weather stations | Latest weather observations for NSW | Other Formats
Station Details ID: 065111 Name: COWRA AIRPORT AWS Lat: -33.84 Lon: 148.65 Height: 296.5 m
Data from the previous 72 hours. | See also: Recent months at Cowra
Date/Time
EST
Temp
°C
App
Temp
°C
Dew
Point
Rel
Hum
%
Delta-T
°C
Wind Press
QNH
hPa
Press
MSL
hPa
Rain
since 9 am
mm
Dir
 
Spd
km/h
Gust
km/h
Spd
kts
Gust
kts
17/04:30pm 20.3 17.1 8.6 47 6.2 S 15 20 8 11 1019.2 - 0.0
17/04:00pm 20.8 17.1 8.1 44 6.7 SW 17 22 9 12 1019.2 - 0.0
17/03:30pm 20.9 17.4 7.2 41 7.1 SW 15 20 8 11 1019.1 - 0.0
17/03:00pm 21.0 17.2 7.6 42 7.0 SW 17 20 9 11 1019.0 1018.8 0.0
17/02:30pm 21.0 18.1 8.3 44 6.7 SW 13 17 7 9 1019.2 - 0.0
17/02:00pm 20.8 17.7 7.4 42 7.0 SSW 13 20 7 11 1019.3 - 0.0
17/01:30pm 20.8 16.4 6.7 40 7.3 SSW 19 26 10 14 1019.7 - 0.0
17/01:00pm 20.4 16.4 6.7 41 7.0 SSW 17 24 9 13 1020.0 - 0.0
17/12:30pm 20.8 18.8 10.0 50 5.9 SW 11 20 6 11 1020.3 - 0.0
17/12:00pm 20.2 16.0 8.2 46 6.3 S 20 24 11 13 1020.8 1020.6 0.0
17/11:30am 19.1 18.0 10.1 56 4.9 SW 6 9 3 5 1021.4 - 0.0
17/11:00am 18.5 17.9 10.3 59 4.5 W 4 9 2 5 1021.7 - 0.0
17/10:30am 17.0 17.2 10.4 65 3.6 CALM 0 4 0 2 1021.8 - 0.0
17/10:00am 15.4 14.7 10.2 71 2.8 SSE 4 9 2 5 1021.9 - 0.0
17/09:30am 14.0 12.7 9.2 73 2.5 S 6 9 3 5 1022.0 - 0.0
17/09:00am 12.7 11.2 9.3 80 1.7 SE 7 11 4 6 1022.0 1021.8 0.0
17/08:30am 11.4 9.7 8.4 82 1.5 SE 7 9 4 5 1022.1 - 0.0
17/08:00am 9.9 8.8 8.5 91 0.7 SSE 4 7 2 4 1021.9 - 0.0
17/07:30am 8.0 7.5 7.9 99 0.0 CALM 0 0 0 0 1021.5 - 0.0
17/07:00am 6.7 5.9 6.6 99 0.0 CALM 0 0 0 0 1021.0 - 0.0
17/06:30am 6.9 6.2 6.8 99 0.0 CALM 0 0 0 0 1020.4 - 0.0
17/06:00am 6.4 5.4 5.8 96 0.3 SE 0 0 0 0 1020.2 1020.0 0.0
17/05:30am 7.0 5.3 5.9 93 0.5 SE 4 9 2 5 1020.0 - 0.0
17/05:00am 7.3 6.1 6.6 95 0.3 SE 2 9 1 5 1019.9 - 0.0
17/04:30am 8.1 7.5 7.3 95 0.4 CALM 0 0 0 0 1019.7 - 0.0
17/04:00am 8.0 7.4 7.4 96 0.3 CALM 0 0 0 0 1019.6 - 0.0
17/03:30am 8.4 7.8 7.5 94 0.4 CALM 0 0 0 0 1019.6 - 0.0
17/03:00am 8.3 7.7 7.5 95 0.4 CALM 0 0 0 0 1019.6 1019.3 0.0
17/02:30am 7.9 7.1 6.7 92 0.6 CALM 0 0 0 0 1019.7 - 0.0
17/02:00am 7.9 7.1 6.4 90 0.7 CALM 0 0 0 0 1019.9 - 0.0
17/01:30am 8.7 8.0 7.0 89 0.8 CALM 0 0 0 0 1020.1 - 0.0
17/01:00am 8.9 8.3 7.5 91 0.7 CALM 0 0 0 0 1020.0 - 0.0
17/12:30am 8.9 8.3 7.5 91 0.7 CALM 0 0 0 0 1020.0 - 0.0
17/12:00am 9.1 8.6 7.9 92 0.6 S 0 0 0 0 1020.2 1020.0 0.0
 
Date/Time
EST
Temp
°C
App
Temp
°C
Dew
Point
Rel
Hum
%
Delta-T
°C
Wind Press
QNH
hPa
Press
MSL
hPa
Rain
since 9 am
mm
Dir
 
Spd
km/h
Gust
km/h
Spd
kts
Gust
kts
16/11:30pm 9.5 8.9 7.4 87 1.0 CALM 0 0 0 0 1020.2 - 0.0
16/11:00pm 9.3 8.7 7.4 88 0.9 CALM 0 0 0 0 1020.3 - 0.0
16/10:30pm 9.8 9.2 7.2 84 1.3 CALM 0 0 0 0 1020.3 - 0.0
16/10:00pm 10.7 10.2 7.9 83 1.4 CALM 0 0 0 0 1020.3 - 0.0
16/09:30pm 11.8 10.2 7.9 77 1.9 SE 6 7 3 4 1020.3 - 0.0
16/09:00pm 14.1 12.5 8.9 71 2.7 SE 7 9 4 5 1020.1 1019.9 0.0
16/08:30pm 14.3 14.2 9.3 72 2.6 CALM 0 0 0 0 1019.9 - 0.0
16/08:00pm 13.8 13.5 8.6 71 2.7 CALM 0 0 0 0 1019.7 - 0.0
16/07:30pm 14.7 13.1 8.2 65 3.3 SE 6 7 3 4 1019.6 - 0.0
16/07:00pm 16.9 14.9 8.8 59 4.2 SSE 9 11 5 6 1019.3 - 0.0
16/06:30pm 17.4 15.8 8.8 57 4.5 SSE 7 9 4 5 1019.2 - 0.0
16/06:00pm 17.5 15.9 8.6 56 4.6 SSE 7 9 4 5 1019.0 1018.8 0.0
16/05:30pm 19.5 17.1 8.8 50 5.7 SSE 11 13 6 7 1018.7 - 0.0
16/05:00pm 20.5 18.1 8.5 46 6.4 SSE 11 15 6 8 1018.5 - 0.0
16/04:30pm 21.0 19.1 8.9 46 6.5 SSE 9 15 5 8 1018.3 - 0.0
16/04:00pm 20.8 18.7 8.4 45 6.6 SSE 9 11 5 6 1018.2 - 0.0
16/03:30pm 21.1 18.5 7.7 42 7.0 SE 11 20 6 11 1018.3 - 0.0
16/03:00pm 21.0 17.9 7.3 41 7.1 SSE 13 17 7 9 1018.4 1018.2 0.0
16/02:30pm 21.0 18.5 8.3 44 6.7 SSE 11 19 6 10 1018.6 - 0.0
16/02:00pm 21.1 18.9 8.0 43 6.9 S 9 19 5 10 1018.7 - 0.0
16/01:30pm 20.7 18.9 9.6 49 6.0 S 9 15 5 8 1018.9 - 0.0
16/01:00pm 20.0 17.7 9.0 49 5.9 S 11 17 6 9 1019.3 - 0.0
16/12:30pm 19.7 17.6 9.6 52 5.4 S 11 19 6 10 1019.7 - 0.0
16/12:00pm 19.0 16.4 9.2 53 5.2 ESE 13 19 7 10 1020.2 1020.0 0.0
16/11:30am 18.8 16.2 9.3 54 5.1 SE 13 19 7 10 1020.6 - 0.0
16/11:00am 17.9 15.2 9.0 56 4.7 SE 13 20 7 11 1021.0 - 0.0
16/10:30am 17.1 13.9 8.3 56 4.6 SE 15 24 8 13 1021.4 - 0.0
16/10:00am 16.6 13.7 8.1 57 4.4 SE 13 20 7 11 1021.7 - 0.0
16/09:30am 16.3 13.4 8.3 59 4.1 SE 13 19 7 10 1021.8 - 0.0
16/09:00am 15.4 12.7 8.9 65 3.4 S 13 19 7 10 1021.9 1021.7 0.0
16/08:30am 14.6 11.4 8.3 66 3.2 S 15 20 8 11 1021.8 - 0.0
16/08:00am 14.2 11.4 8.4 68 3.0 S 13 19 7 10 1021.7 - 0.0
16/07:30am 13.1 9.5 8.4 73 2.4 S 17 20 9 11 1021.3 - 0.0
16/07:00am 12.4 8.8 8.3 76 2.1 S 17 20 9 11 1021.0 - 0.0
16/06:30am 12.2 8.9 8.1 76 2.0 S 15 19 8 10 1020.6 - 0.0
16/06:00am 12.1 8.8 8.2 77 1.9 S 15 19 8 10 1020.4 1020.2 0.0
16/05:30am 12.3 8.7 8.4 77 2.0 SSE 17 20 9 11 1020.0 - 0.0
16/05:00am 12.2 9.1 8.7 79 1.8 S 15 19 8 10 1020.1 - 0.0
16/04:30am 12.3 9.2 9.0 80 1.7 S 15 17 8 9 1019.9 - 0.0
16/04:00am 12.5 9.5 9.3 81 1.6 S 15 17 8 9 1019.8 - 0.0
16/03:30am 12.5 9.9 9.5 82 1.5 S 13 17 7 9 1019.7 - 0.0
16/03:00am 12.5 10.1 10.0 85 1.3 S 13 15 7 8 1019.8 1019.5 0.0
16/02:30am 12.4 10.6 9.6 83 1.4 S 9 11 5 6 1020.0 - 0.0
16/02:00am 13.2 10.8 10.0 81 1.7 S 13 17 7 9 1020.1 - 0.0
16/01:30am 13.6 10.9 10.4 81 1.7 S 15 17 8 9 1020.5 - 0.0
16/01:00am 13.5 11.3 10.9 84 1.4 S 13 15 7 8 1020.6 - 0.0
16/12:30am 13.0 12.0 10.9 87 1.1 S 7 11 4 6 1020.6 - 0.0
16/12:00am 12.2 11.3 9.4 83 1.4 SSW 4 7 2 4 1020.7 1020.5 0.0
 
Date/Time
EST
Temp
°C
App
Temp
°C
Dew
Point
Rel
Hum
%
Delta-T
°C
Wind Press
QNH
hPa
Press
MSL
hPa
Rain
since 9 am
mm
Dir
 
Spd
km/h
Gust
km/h
Spd
kts
Gust
kts
15/11:30pm 13.0 11.7 10.0 82 1.6 SSE 7 11 4 6 1020.7 - 0.0
15/11:00pm 14.6 13.0 10.2 75 2.3 SE 9 11 5 6 1020.8 - 0.0
15/10:30pm 13.7 12.3 9.4 75 2.2 S 7 9 4 5 1020.8 - 0.0
15/10:00pm 13.9 12.3 8.7 71 2.7 ESE 7 11 4 6 1020.6 - 0.0
15/09:30pm 14.8 12.9 9.2 69 2.9 SE 9 13 5 7 1020.5 - 0.0
15/09:00pm 14.8 12.6 9.2 69 2.9 SSE 11 13 6 7 1020.4 1020.2 0.0
15/08:30pm 14.0 13.6 8.2 68 2.9 CALM 0 0 0 0 1020.1 - 0.0
15/08:00pm 14.7 13.7 8.9 68 3.0 S 4 7 2 4 1019.9 - 0.0
15/07:30pm 14.7 12.7 8.6 67 3.1 SSW 9 11 5 6 1019.7 - 0.0
15/07:00pm 15.2 13.1 8.4 64 3.5 S 9 11 5 6 1019.4 - 0.0
15/06:30pm 16.1 14.0 8.1 59 4.1 S 9 11 5 6 1019.2 - 0.0
15/06:00pm 18.0 15.5 8.0 52 5.2 S 11 15 6 8 1019.1 1018.9 0.0
15/05:30pm 19.1 15.7 7.8 48 5.9 S 15 17 8 9 1018.9 - 0.0
15/05:00pm 20.1 16.8 8.1 46 6.3 S 15 19 8 10 1018.8 - 0.0
15/04:30pm 20.8 17.3 7.1 41 7.1 S 15 19 8 10 1018.7 - 0.0
15/04:00pm 21.3 18.0 7.9 42 7.1 S 15 19 8 10 1018.6 - 0.0
15/03:30pm 21.0 17.4 8.3 44 6.7 S 17 20 9 11 1018.6 - 0.0
15/03:00pm 21.0 17.2 7.6 42 7.0 SSE 17 22 9 12 1018.7 1018.5 0.0
15/02:30pm 21.8 19.1 9.0 44 6.9 SSE 13 22 7 12 1018.9 - 0.0
15/02:00pm 21.1 18.0 8.7 45 6.6 S 15 20 8 11 1018.9 - 0.0
15/01:30pm 20.8 17.9 8.1 44 6.7 S 13 22 7 12 1019.1 - 0.0
15/01:00pm 20.6 17.6 9.2 48 6.1 S 15 20 8 11 1019.4 - 0.0
15/12:30pm 20.2 17.8 8.8 48 6.1 SSE 11 17 6 9 1019.9 - 0.0
15/12:00pm 19.5 17.7 9.4 52 5.4 ESE 9 15 5 8 1020.5 1020.3 0.0
15/11:30am 18.7 16.1 9.2 54 5.1 SSE 13 19 7 10 1021.0 - 0.0
15/11:00am 18.5 15.6 9.6 56 4.8 SSE 15 20 8 11 1021.2 - 0.0
15/10:30am 17.4 14.7 8.8 57 4.5 SSE 13 24 7 13 1021.5 - 0.0
15/10:00am 16.8 13.7 9.0 60 4.1 SSE 15 22 8 12 1021.5 - 0.0
15/09:30am 16.2 13.1 8.9 62 3.8 SE 15 20 8 11 1021.7 - 0.0
15/09:00am 15.1 12.4 9.0 67 3.2 S 13 19 7 10 1021.9 1021.7 0.0
15/08:30am 14.1 11.3 8.5 69 2.9 S 13 17 7 9 1021.7 - 0.0
15/08:00am 12.9 9.6 8.0 72 2.5 S 15 17 8 9 1021.6 - 0.0
15/07:30am 11.8 9.8 8.6 81 1.6 S 9 11 5 6 1021.6 - 0.0
15/07:00am 10.0 8.2 7.9 87 1.0 S 7 9 4 5 1021.2 - 0.0
15/06:30am 10.4 8.2 7.8 84 1.3 S 9 11 5 6 1021.0 - 0.0
15/06:00am 11.0 8.6 8.6 85 1.2 SSE 11 15 6 8 1020.8 1020.6 0.0
15/05:30am 10.8 8.4 8.6 86 1.1 S 11 13 6 7 1020.7 - 0.0
15/05:00am 11.7 9.0 9.1 84 1.3 SSE 13 15 7 8 1020.5 - 0.0
15/04:30am 11.8 10.0 9.5 86 1.2 S 9 13 5 7 1020.6 - 0.0
15/04:00am 11.2 9.6 8.8 85 1.2 S 7 9 4 5 1020.2 - 0.0
15/03:30am 12.1 10.6 8.6 79 1.8 S 6 7 3 4 1020.2 - 0.0
15/03:00am 13.4 11.6 9.6 78 2.0 SE 9 13 5 7 1020.2 1020.0 0.0
15/02:30am 12.3 10.7 8.2 76 2.1 SSE 6 7 3 4 1020.5 - 0.0
15/02:00am 12.9 11.0 9.0 77 2.0 SSE 9 11 5 6 1020.5 - 0.0
15/01:30am 12.2 10.2 8.7 79 1.8 SSE 9 11 5 6 1020.7 - 0.0
15/01:00am 11.8 10.2 8.6 81 1.6 SSW 7 9 4 5 1020.8 - 0.0
15/12:30am 12.4 10.8 8.7 78 1.9 SSW 7 7 4 4 1020.8 - 0.0
15/12:00am 13.2 11.5 8.5 73 2.4 SSE 7 9 4 5 1020.9 1020.7 0.0
 
Date/Time
EST
Temp
°C
App
Temp
°C
Dew
Point
Rel
Hum
%
Delta-T
°C
Wind Press
QNH
hPa
Press
MSL
hPa
Rain
since 9 am
mm
Dir
 
Spd
km/h
Gust
km/h
Spd
kts
Gust
kts
14/11:30pm 12.6 10.5 8.3 75 2.2 S 9 11 5 6 1020.9 - 0.0
14/11:00pm 14.1 11.8 8.9 71 2.7 SSE 11 13 6 7 1020.9 - 0.0
14/10:30pm 13.5 11.4 9.7 78 2.0 S 11 13 6 7 1021.0 - 0.0
14/10:00pm 14.7 13.0 9.9 73 2.5 SSE 9 11 5 6 1020.9 - 0.0
14/09:30pm 15.2 13.6 10.2 72 2.7 SE 9 13 5 7 1020.8 - 0.0
14/09:00pm 15.4 13.4 10.2 71 2.8 SE 11 13 6 7 1020.6 1020.4 0.0
14/08:30pm 15.7 13.8 10.5 71 2.8 SSE 11 15 6 8 1020.3 - 0.0
14/08:00pm 15.9 14.4 10.4 70 2.9 SSE 9 13 5 7 1019.9 - 0.0
14/07:30pm 16.6 14.4 9.5 63 3.8 SSE 11 13 6 7 1019.6 - 0.0
14/07:00pm 17.0 14.4 9.4 61 4.0 S 13 19 7 10 1019.3 - 0.0
14/06:30pm 17.4 15.3 8.3 55 4.7 S 9 9 5 5 1018.7 - 0.0
14/06:00pm 17.5 15.4 8.4 55 4.7 SSW 9 11 5 6 1018.4 1018.2 0.0
14/05:30pm 19.1 16.4 7.2 46 6.1 SSW 11 13 6 7 1018.0 - 0.0
14/05:00pm 20.6 18.0 7.6 43 6.8 S 11 15 6 8 1018.0 - 0.0

Other Formats:

Comma delimited format used in spreadsheet applications
http://www.bom.gov.au/fwo/IDN60801/IDN60801.95721.axf

JavaScript Object Notation format (JSON) in row-major order
http://www.bom.gov.au/fwo/IDN60801/IDN60801.95721.json